Time;durP1;ratioP1;P1;durP2;ratioP2;P2;SDS_P1;SDS_P2;PMS_P1;PMS_P2;Temp;Humidity;BMP_temperature;BMP_pressure;BME280_temperature;BME280_humidity;BME280_pressure;Samples;Min_cycle;Max_cycle;Signal;HPM_P1;HPM_P2
2022/05/16 00:00:53;;;;;;;2.80;1.30;;;;;;;;;;4998252;28;20053;-85
2022/05/16 00:03:21;;;;;;;4.07;1.60;;;;;;;;;;4977443;28;20058;-86
2022/05/16 00:05:49;;;;;;;8.35;1.50;;;;;;;;;;4992568;28;20440;-86
2022/05/16 00:08:17;;;;;;;2.90;1.30;;;;;;;;;;4995652;28;20061;-86
2022/05/16 00:10:45;;;;;;;3.70;1.52;;;;;;;;;;4980153;28;20088;-83
2022/05/16 00:13:13;;;;;;;3.35;1.40;;;;;;;;;;5001742;23;20058;-80
2022/05/16 00:15:41;;;;;;;3.53;1.45;;;;;;;;;;5031304;28;20126;-81
2022/05/16 00:18:09;;;;;;;4.47;1.52;;;;;;;;;;4972349;28;20565;-82
2022/05/16 00:20:37;;;;;;;5.63;1.52;;;;;;;;;;4991675;28;20121;-82
2022/05/16 00:23:05;;;;;;;4.55;1.67;;;;;;;;;;4975892;28;20440;-81
2022/05/16 00:25:33;;;;;;;5.47;1.52;;;;;;;;;;4994505;28;20057;-81
2022/05/16 00:28:01;;;;;;;3.35;1.38;;;;;;;;;;4969494;28;20086;-81
2022/05/16 00:30:30;;;;;;;3.33;1.48;;;;;;;;;;5017239;28;20046;-82
2022/05/16 00:32:57;;;;;;;12.68;2.00;;;;;;;;;;4997219;28;20046;-82
2022/05/16 00:35:25;;;;;;;4.88;1.50;;;;;;;;;;4992480;28;20538;-81
2022/05/16 00:37:53;;;;;;;3.55;2.00;;;;;;;;;;4967997;28;20056;-82
2022/05/16 00:40:21;;;;;;;5.30;1.55;;;;;;;;;;5015426;28;20514;-83
2022/05/16 00:42:49;;;;;;;4.07;1.58;;;;;;;;;;4997754;28;20046;-82
2022/05/16 07:07:08;;;;;;;4.80;2.13;;;;;;;;;;4994657;28;20038;-80
2022/05/16 07:09:39;;;;;;;4.18;1.90;;;;;;;;;;4971766;28;20093;-80
2022/05/16 07:12:08;;;;;;;4.40;1.60;;;;;;;;;;4994791;28;20049;-80
2022/05/16 07:14:38;;;;;;;6.30;2.10;;;;;;;;;;4979675;28;20054;-80
2022/05/16 07:17:06;;;;;;;7.28;2.10;;;;;;;;;;4978079;28;20043;-80
2022/05/16 07:19:35;;;;;;;6.13;1.92;;;;;;;;;;4988335;28;20038;-80
2022/05/16 07:22:09;;;;;;;5.78;1.98;;;;;;;;;;4978139;28;20168;-80
2022/05/16 07:24:46;;;;;;;4.47;1.83;;;;;;;;;;4981473;28;20082;-80
2022/05/16 07:29:59;;;;;;;5.07;1.75;;;;;;;;;;4996560;28;20048;-81
2022/05/16 07:32:43;;;;;;;8.38;2.08;;;;;;;;;;4954021;28;20121;-81
2022/05/16 07:35:19;;;;;;;6.00;2.00;;;;;;;;;;4965184;28;20054;-81
2022/05/16 07:37:47;;;;;;;5.53;2.35;;;;;;;;;;4995270;28;20042;-82
2022/05/16 07:40:16;;;;;;;7.32;2.20;;;;;;;;;;4998734;28;20058;-83
2022/05/16 07:42:59;;;;;;;9.65;2.10;;;;;;;;;;4995237;28;20061;-83
2022/05/16 07:45:30;;;;;;;4.90;1.88;;;;;;;;;;4999687;28;20050;-84
2022/05/16 07:48:04;;;;;;;7.30;1.70;;;;;;;;;;4973604;28;20054;-82
2022/05/16 07:50:45;;;;;;;7.60;1.80;;;;;;;;;;4930853;29;20051;-81
2022/05/16 07:53:14;;;;;;;6.45;1.92;;;;;;;;;;4921602;29;20174;-82
2022/05/16 07:55:46;;;;;;;5.53;1.80;;;;;;;;;;4939584;29;20559;-83
2022/05/16 07:58:13;;;;;;;4.85;1.92;;;;;;;;;;4938861;28;20055;-83
2022/05/16 08:00:42;;;;;;;6.85;2.08;;;;;;;;;;4939712;29;20125;-82
2022/05/16 08:03:14;;;;;;;10.60;3.08;;;;;;;;;;4954784;28;20066;-82
2022/05/16 08:05:42;;;;;;;9.25;2.10;;;;;;;;;;4940403;29;20062;-82
2022/05/16 08:10:58;;;;;;;6.38;2.15;;;;;;;;;;4932245;29;20059;-82
2022/05/16 08:13:26;;;;;;;7.40;1.90;;;;;;;;;;4936850;28;21026;-82
2022/05/16 08:15:54;;;;;;;5.60;1.70;;;;;;;;;;4936155;29;20074;-82
2022/05/16 08:18:22;;;;;;;5.47;1.80;;;;;;;;;;4951421;28;20063;-82
2022/05/16 08:20:51;;;;;;;6.25;1.73;;;;;;;;;;4919851;29;20056;-82
2022/05/16 08:23:22;;;;;;;6.57;1.70;;;;;;;;;;4934401;29;20154;-83
2022/05/16 08:25:53;;;;;;;3.75;1.63;;;;;;;;;;4936252;29;20623;-82
2022/05/16 08:28:23;;;;;;;5.05;1.88;;;;;;;;;;4974669;28;20141;-83
2022/05/16 08:30:51;;;;;;;7.40;2.45;;;;;;;;;;4960174;28;20068;-82
2022/05/16 08:33:19;;;;;;;5.60;1.63;;;;;;;;;;4974360;28;20046;-83
2022/05/16 08:39:52;;;;;;;9.35;2.08;;;;;;;;;;4992494;28;20046;-82
2022/05/16 08:41:28;;;;;;;5.70;1.70;;;;;;;;;;4977254;28;20570;-82
2022/05/16 08:44:07;;;;;;;4.72;1.90;;;;;;;;;;4990956;28;20046;-83
2022/05/16 08:46:44;;;;;;;7.13;1.85;;;;;;;;;;4987179;28;20058;-83
2022/05/16 08:49:26;;;;;;;7.78;1.98;;;;;;;;;;4978473;28;20061;-84
2022/05/16 08:52:07;;;;;;;7.35;2.10;;;;;;;;;;4975791;28;20159;-83
2022/05/16 08:54:49;;;;;;;7.30;2.40;;;;;;;;;;4988488;28;20054;-82
2022/05/16 08:57:30;;;;;;;4.07;1.98;;;;;;;;;;4985212;28;20130;-83
2022/05/16 09:00:25;;;;;;;6.93;1.70;;;;;;;;;;4992574;28;20105;-83
2022/05/16 09:02:54;;;;;;;;;;;;;;;;;;4988653;28;20392;-83
2022/05/16 09:05:39;;;;;;;6.93;1.60;;;;;;;;;;4968855;28;19929;-83
2022/05/16 09:08:13;;;;;;;6.38;2.05;;;;;;;;;;4990056;28;20046;-82
2022/05/16 09:11:01;;;;;;;5.32;1.80;;;;;;;;;;4977493;28;20058;-83
2022/05/16 09:13:34;;;;;;;3.90;1.42;;;;;;;;;;4976498;28;20874;-83
2022/05/16 09:16:28;;;;;;;5.25;1.70;;;;;;;;;;4989095;28;20050;-83
2022/05/16 09:18:55;;;;;;;8.10;1.77;;;;;;;;;;4993500;28;20054;-83
2022/05/16 09:21:58;;;;;;;5.10;1.75;;;;;;;;;;4970291;28;20163;-82
2022/05/16 09:24:30;;;;;;;3.30;1.50;;;;;;;;;;4974381;28;20072;-84
2022/05/16 09:28:34;;;;;;;7.50;1.60;;;;;;;;;;4994319;28;20408;-83
2022/05/16 09:30:08;;;;;;;3.78;2.13;;;;;;;;;;4992327;28;20038;-83
2022/05/16 09:32:41;;;;;;;4.60;1.85;;;;;;;;;;4991690;28;20058;-83
2022/05/16 09:35:37;;;;;;;4.28;1.48;;;;;;;;;;4990878;28;20072;-83
2022/05/16 09:38:05;;;;;;;;;;;;;;;;;;4977395;28;20050;-83
2022/05/16 09:41:00;;;;;;;5.47;1.70;;;;;;;;;;4993619;28;19988;-83
2022/05/16 09:43:37;;;;;;;6.32;1.90;;;;;;;;;;4993079;28;20049;-82
2022/05/16 09:46:24;;;;;;;5.25;1.92;;;;;;;;;;4993205;28;20050;-82
2022/05/16 09:49:25;;;;;;;9.10;2.30;;;;;;;;;;4969112;28;20062;-82
2022/05/16 09:51:59;;;;;;;3.33;1.65;;;;;;;;;;4932731;28;20048;-82
2022/05/16 09:54:33;;;;;;;2.88;1.30;;;;;;;;;;4942104;28;20056;-82
2022/05/16 09:57:07;;;;;;;5.53;1.27;;;;;;;;;;4942220;28;20055;-81
2022/05/16 09:59:43;;;;;;;3.72;1.55;;;;;;;;;;4960049;28;20484;-82
2022/05/16 10:02:20;;;;;;;3.28;1.45;;;;;;;;;;4925057;28;20509;-82
2022/05/16 10:04:58;;;;;;;5.40;1.73;;;;;;;;;;4960657;28;20050;-84
2022/05/16 10:07:29;;;;;;;4.60;1.65;;;;;;;;;;4961812;28;20051;-84
2022/05/16 10:09:58;;;;;;;3.55;1.30;;;;;;;;;;4958440;28;20063;-83
2022/05/16 10:12:27;;;;;;;7.65;1.50;;;;;;;;;;4944198;28;20609;-84
2022/05/16 10:14:55;;;;;;;8.32;1.38;;;;;;;;;;4944768;28;20142;-83
2022/05/16 10:17:37;;;;;;;4.80;1.80;;;;;;;;;;4957271;28;21786;-80
2022/05/16 10:20:20;;;;;;;3.92;1.50;;;;;;;;;;4946482;28;20054;-84
2022/05/16 10:22:53;;;;;;;6.55;1.80;;;;;;;;;;4946143;28;20055;-83
2022/05/16 10:25:39;;;;;;;9.30;1.80;;;;;;;;;;4947563;28;20079;-83
2022/05/16 10:28:14;;;;;;;4.85;1.70;;;;;;;;;;4978362;28;20073;-84
2022/05/16 10:33:34;;;;;;;4.95;1.50;;;;;;;;;;5009065;28;20041;-84
2022/05/16 10:36:07;;;;;;;5.93;2.17;;;;;;;;;;5010817;28;20479;-84
2022/05/16 10:38:42;;;;;;;4.15;1.92;;;;;;;;;;5011377;28;20124;-84
2022/05/16 10:41:15;;;;;;;4.43;1.60;;;;;;;;;;5006599;28;20103;-83
2022/05/16 10:44:01;;;;;;;8.60;1.92;;;;;;;;;;4991539;28;20179;-83
2022/05/16 10:46:34;;;;;;;4.60;1.70;;;;;;;;;;5009001;28;20065;-84
2022/05/16 10:49:10;;;;;;;6.35;1.63;;;;;;;;;;4992470;28;20534;-84
2022/05/16 10:51:49;;;;;;;4.18;1.48;;;;;;;;;;4998878;28;20054;-84
2022/05/16 10:54:25;;;;;;;5.43;1.67;;;;;;;;;;5005713;28;20684;-85
2022/05/16 10:57:20;;;;;;;5.40;1.70;;;;;;;;;;5009348;28;20140;-84
2022/05/16 10:59:50;;;;;;;4.35;1.60;;;;;;;;;;4947244;28;20059;-83
2022/05/16 11:02:41;;;;;;;6.80;1.35;;;;;;;;;;4929302;28;20443;-84
2022/05/16 11:05:31;;;;;;;4.88;1.60;;;;;;;;;;4948308;28;20283;-84
2022/05/16 11:08:46;;;;;;;4.90;1.50;;;;;;;;;;4947212;28;20083;-84
2022/05/16 11:11:25;;;;;;;6.20;2.13;;;;;;;;;;4918490;29;20163;-84
2022/05/16 11:14:02;;;;;;;5.78;1.48;;;;;;;;;;4919810;29;20052;-84
2022/05/16 11:16:38;;;;;;;6.43;1.48;;;;;;;;;;4903764;29;20208;-84
2022/05/16 11:20:05;;;;;;;4.35;1.77;;;;;;;;;;4919951;29;20116;-83
2022/05/16 11:22:47;;;;;;;4.35;1.90;;;;;;;;;;4874187;29;20061;-84
2022/05/16 11:25:21;;;;;;;4.93;1.85;;;;;;;;;;4872527;29;20057;-83
2022/05/16 11:28:14;;;;;;;4.10;1.52;;;;;;;;;;4867895;29;20124;-84
2022/05/16 11:31:05;;;;;;;8.55;2.42;;;;;;;;;;4885829;29;20045;-83
2022/05/16 11:33:39;;;;;;;6.22;1.55;;;;;;;;;;4874670;29;20048;-83
2022/05/16 11:36:29;;;;;;;4.07;1.50;;;;;;;;;;4878514;29;20079;-83
2022/05/16 11:39:20;;;;;;;8.73;1.98;;;;;;;;;;4922866;29;20111;-84
2022/05/16 11:41:54;;;;;;;2.85;1.40;;;;;;;;;;4918061;29;20058;-84
2022/05/16 11:44:35;;;;;;;3.40;1.45;;;;;;;;;;4897478;29;20099;-83
2022/05/16 11:47:08;;;;;;;4.03;1.60;;;;;;;;;;4925527;29;20051;-84
2022/05/16 11:50:16;;;;;;;5.43;1.70;;;;;;;;;;4930188;29;20541;-82
2022/05/16 11:53:22;;;;;;;9.23;1.52;;;;;;;;;;4922403;29;20044;-83
2022/05/16 12:01:37;;;;;;;2.90;1.38;;;;;;;;;;4959517;28;20162;-84
2022/05/16 12:04:15;;;;;;;4.72;1.58;;;;;;;;;;4961052;28;20051;-84
2022/05/16 12:06:48;;;;;;;4.97;1.60;;;;;;;;;;4959239;28;20449;-83
2022/05/16 12:09:23;;;;;;;3.95;1.48;;;;;;;;;;4963989;28;20054;-83
2022/05/16 12:11:55;;;;;;;5.28;1.60;;;;;;;;;;4958956;28;20602;-84
2022/05/16 12:15:07;;;;;;;4.57;1.40;;;;;;;;;;4963905;28;20413;-84
2022/05/16 12:18:04;;;;;;;4.13;1.60;;;;;;;;;;4962683;28;20058;-83
2022/05/16 12:20:33;;;;;;;3.67;1.40;;;;;;;;;;4962230;28;20058;-85
2022/05/16 12:23:01;;;;;;;3.08;1.25;;;;;;;;;;4961481;28;20062;-84
2022/05/16 12:25:43;;;;;;;5.05;1.42;;;;;;;;;;4952355;28;20178;-85
2022/05/16 12:28:29;;;;;;;4.90;1.50;;;;;;;;;;4963642;28;20213;-84
2022/05/16 12:31:13;;;;;;;3.03;1.30;;;;;;;;;;5013733;28;20145;-85
2022/05/16 12:33:41;;;;;;;3.92;1.65;;;;;;;;;;5008220;28;20081;-84
2022/05/16 12:36:25;;;;;;;2.78;1.27;;;;;;;;;;4982387;28;20062;-85
2022/05/16 12:39:55;;;;;;;2.58;1.17;;;;;;;;;;4996838;28;20050;-84
2022/05/16 12:42:50;;;;;;;3.20;1.30;;;;;;;;;;4933378;28;20040;-83
2022/05/16 12:45:50;;;;;;;5.82;1.65;;;;;;;;;;4952792;29;20134;-84
2022/05/16 12:48:57;;;;;;;3.45;1.33;;;;;;;;;;4966797;28;20135;-84
2022/05/16 12:51:50;;;;;;;3.60;1.52;;;;;;;;;;4951330;28;20055;-84
2022/05/16 12:55:10;;;;;;;4.85;1.50;;;;;;;;;;4944696;28;20486;-84
2022/05/16 12:58:05;;;;;;;5.22;1.70;;;;;;;;;;4932023;29;21018;-84
2022/05/16 13:24:56;;;;;;;8.43;1.58;;;;;;;;;;4791130;29;20054;-82
2022/05/16 13:31:00;;;;;;;2.92;1.40;;;;;;;;;;4771866;29;20062;-84
2022/05/16 13:34:54;;;;;;;4.57;1.30;;;;;;;;;;4776276;29;20067;-82
2022/05/16 13:37:49;;;;;;;7.28;1.58;;;;;;;;;;4763929;29;20121;-84
2022/05/16 13:40:42;;;;;;;4.30;1.42;;;;;;;;;;4805548;29;20053;-83
2022/05/16 13:43:26;;;;;;;7.75;1.90;;;;;;;;;;4836442;29;20050;-83
2022/05/16 13:47:22;;;;;;;5.03;1.65;;;;;;;;;;4884408;29;20645;-83
2022/05/16 13:50:03;;;;;;;4.50;1.60;;;;;;;;;;4830861;29;20065;-83
2022/05/16 13:52:40;;;;;;;3.78;1.33;;;;;;;;;;4829880;29;20157;-83
2022/05/16 13:55:12;;;;;;;4.85;1.50;;;;;;;;;;4829726;29;20050;-83
2022/05/16 13:57:53;;;;;;;4.95;1.30;;;;;;;;;;4839287;29;20183;-84
2022/05/16 14:00:29;;;;;;;6.15;1.83;;;;;;;;;;4891773;29;20056;-83
2022/05/16 14:03:04;;;;;;;7.57;2.10;;;;;;;;;;4928220;29;20055;-83
2022/05/16 14:05:39;;;;;;;6.10;2.03;;;;;;;;;;4914139;29;20067;-83
2022/05/16 14:09:00;;;;;;;8.25;2.03;;;;;;;;;;4943720;28;20143;-84
2022/05/16 14:11:43;;;;;;;6.40;1.70;;;;;;;;;;4917251;29;20047;-84
2022/05/16 14:15:36;;;;;;;5.25;1.50;;;;;;;;;;4931486;29;20052;-83
2022/05/16 14:19:13;;;;;;;4.40;1.70;;;;;;;;;;4928773;29;20052;-82
2022/05/16 14:21:58;;;;;;;5.05;1.42;;;;;;;;;;4931278;28;20141;-83
2022/05/16 14:25:18;;;;;;;3.97;1.42;;;;;;;;;;4948325;28;20047;-83
2022/05/16 14:29:33;;;;;;;4.22;1.50;;;;;;;;;;4931800;29;20055;-83
2022/05/16 14:33:58;;;;;;;4.78;1.30;;;;;;;;;;4894788;29;20148;-83
2022/05/16 14:38:06;;;;;;;4.18;1.48;;;;;;;;;;4855382;29;20148;-83
2022/05/16 14:42:53;;;;;;;5.50;1.70;;;;;;;;;;4772066;30;20059;-83
2022/05/16 14:47:39;;;;;;;7.60;2.07;;;;;;;;;;4761825;30;20052;-82
2022/05/16 14:50:57;;;;;;;7.65;1.92;;;;;;;;;;4774687;29;21191;-84
2022/05/16 14:53:44;;;;;;;9.60;2.42;;;;;;;;;;4779244;29;20055;-83
2022/05/16 14:56:36;;;;;;;6.43;1.50;;;;;;;;;;4792813;29;20534;-84
2022/05/16 14:59:17;;;;;;;6.88;2.08;;;;;;;;;;4781436;29;20062;-83
2022/05/16 15:04:59;;;;;;;7.15;2.00;;;;;;;;;;4822771;29;20058;-84
2022/05/16 15:07:42;;;;;;;4.55;1.45;;;;;;;;;;4834362;29;20687;-83
2022/05/16 15:10:24;;;;;;;13.68;2.25;;;;;;;;;;4834913;29;20539;-84
2022/05/16 15:17:35;;;;;;;4.68;1.60;;;;;;;;;;4848184;29;20195;-84
2022/05/16 15:20:17;;;;;;;7.00;1.77;;;;;;;;;;4870640;29;20053;-84
2022/05/16 15:23:00;;;;;;;7.25;1.70;;;;;;;;;;4856490;29;20050;-85
2022/05/16 15:26:03;;;;;;;7.45;1.60;;;;;;;;;;4867332;29;20102;-85
2022/05/16 15:30:21;;;;;;;5.85;1.85;;;;;;;;;;4873946;29;20053;-84
2022/05/16 15:34:19;;;;;;;7.50;1.77;;;;;;;;;;4936219;29;20035;-83
2022/05/16 15:37:05;;;;;;;7.15;1.65;;;;;;;;;;4885124;29;20593;-85
2022/05/16 15:39:51;;;;;;;11.45;1.75;;;;;;;;;;4901751;29;20060;-84
2022/05/16 15:43:39;;;;;;;5.13;2.20;;;;;;;;;;4893370;29;20109;-86
2022/05/16 15:46:49;;;;;;;6.00;1.40;;;;;;;;;;4881782;29;20056;-86
2022/05/16 15:49:32;;;;;;;6.05;1.90;;;;;;;;;;4872705;29;20088;-85
2022/05/16 16:09:46;;;;;;;5.10;1.92;;;;;;;;;;6291432;22;20085;-85
2022/05/16 16:17:57;;;;;;;8.32;1.73;;;;;;;;;;6157263;23;20021;-83
2022/05/16 16:21:38;;;;;;;9.13;2.08;;;;;;;;;;6126234;23;20025;-84
2022/05/16 16:24:24;;;;;;;9.82;2.10;;;;;;;;;;6133818;23;20026;-82
2022/05/16 16:27:47;;;;;;;6.45;2.13;;;;;;;;;;6105861;23;20076;-89
2022/05/16 16:31:10;;;;;;;7.05;1.58;;;;;;;;;;6108750;23;20030;-85
2022/05/16 16:34:53;;;;;;;4.72;1.58;;;;;;;;;;6040377;23;20574;-85
2022/05/16 16:39:01;;;;;;;6.38;1.85;;;;;;;;;;5968138;24;20071;-86
2022/05/16 16:48:22;;;;;;;10.13;2.17;;;;;;;;;;5913962;24;20110;-84
2022/05/16 16:59:48;;;;;;;7.28;1.90;;;;;;;;;;5874984;24;20033;-83
2022/05/16 17:02:53;;;;;;;5.47;1.85;;;;;;;;;;5867597;24;20069;-85
2022/05/16 17:05:53;;;;;;;6.75;1.70;;;;;;;;;;5902299;24;20110;-81
2022/05/16 17:08:21;;;;;;;7.03;2.35;;;;;;;;;;5890030;24;20055;-81
2022/05/16 17:11:03;;;;;;;7.60;1.85;;;;;;;;;;5870621;24;20104;-81
2022/05/16 17:13:34;;;;;;;7.55;1.65;;;;;;;;;;5959304;24;20178;-79
2022/05/16 17:16:03;;;;;;;6.95;1.70;;;;;;;;;;5991467;24;20084;-83
2022/05/16 17:18:33;;;;;;;5.70;1.50;;;;;;;;;;6000802;23;20104;-81
2022/05/16 17:21:11;;;;;;;4.55;1.63;;;;;;;;;;5991709;23;20018;-81
2022/05/16 17:23:53;;;;;;;6.20;1.80;;;;;;;;;;6013293;23;20023;-82
2022/05/16 17:26:37;;;;;;;3.25;1.65;;;;;;;;;;6044259;23;20035;-81
2022/05/16 17:29:07;;;;;;;5.30;2.00;;;;;;;;;;6170065;22;20363;-81
2022/05/16 17:31:43;;;;;;;5.90;1.80;;;;;;;;;;6318495;22;20015;-80
2022/05/16 17:34:11;;;;;;;4.28;1.60;;;;;;;;;;6256282;22;20038;-81
2022/05/16 17:36:50;;;;;;;3.90;1.58;;;;;;;;;;6269812;22;20353;-81
2022/05/16 17:39:21;;;;;;;6.53;1.50;;;;;;;;;;6232341;22;20469;-81
2022/05/16 17:41:58;;;;;;;7.03;1.65;;;;;;;;;;6319269;22;20019;-81
2022/05/16 17:45:33;;;;;;;6.95;1.60;;;;;;;;;;6286704;22;20023;-81
2022/05/16 17:48:49;;;;;;;8.23;1.83;;;;;;;;;;6145659;23;20103;-81
2022/05/16 17:51:43;;;;;;;4.97;1.75;;;;;;;;;;6187868;23;20110;-81
2022/05/16 17:59:12;;;;;;;5.07;1.75;;;;;;;;;;6266139;23;20026;-82
2022/05/16 18:13:00;;;;;;;7.75;1.40;;;;;;;;;;5976812;24;20027;-82
2022/05/16 18:15:48;;;;;;;8.32;2.30;;;;;;;;;;5926172;24;20032;-84
2022/05/16 18:18:32;;;;;;;6.00;1.65;;;;;;;;;;5971496;23;20026;-84
2022/05/16 18:40:46;;;;;;;5.70;1.98;;;;;;;;;;6087190;23;20656;-84
2022/05/16 18:52:27;;;;;;;4.35;1.38;;;;;;;;;;6012957;23;20096;-84
2022/05/16 18:56:51;;;;;;;7.47;2.10;;;;;;;;;;6094763;23;20034;-84
2022/05/16 19:00:33;;;;;;;7.47;1.90;;;;;;;;;;6066802;23;20034;-83
2022/05/16 19:08:52;;;;;;;6.10;1.80;;;;;;;;;;6090076;23;20022;-85
2022/05/16 19:11:56;;;;;;;6.28;1.60;;;;;;;;;;6078902;23;20050;-85
2022/05/16 19:15:03;;;;;;;7.20;2.42;;;;;;;;;;6027001;23;20026;-85
2022/05/16 19:17:54;;;;;;;6.18;1.83;;;;;;;;;;6013416;23;20085;-85
2022/05/16 19:20:53;;;;;;;13.95;2.13;;;;;;;;;;6040524;23;20414;-85
2022/05/16 19:43:59;;;;;;;8.65;1.80;;;;;;;;;;6090627;23;20018;-84
2022/05/16 19:53:06;;;;;;;6.63;1.80;;;;;;;;;;5854303;24;20048;-83
2022/05/16 19:56:00;;;;;;;6.03;2.15;;;;;;;;;;5821468;24;20044;-82
2022/05/16 19:59:06;;;;;;;7.15;1.70;;;;;;;;;;5861288;24;20026;-85
2022/05/16 20:01:49;;;;;;;5.82;1.80;;;;;;;;;;5867171;24;20029;-83
2022/05/16 20:05:16;;;;;;;6.03;1.90;;;;;;;;;;5863211;24;20094;-82
2022/05/16 20:09:33;;;;;;;6.10;2.22;;;;;;;;;;5879895;24;20025;-83
2022/05/16 20:12:03;;;;;;;5.88;1.80;;;;;;;;;;5870233;24;20026;-83
2022/05/16 20:14:31;;;;;;;5.90;1.92;;;;;;;;;;5904211;24;20458;-84
2022/05/16 20:16:59;;;;;;;3.78;1.70;;;;;;;;;;5905303;24;20106;-84
2022/05/16 20:19:27;;;;;;;5.50;2.03;;;;;;;;;;5960794;24;20069;-86
2022/05/16 20:28:14;;;;;;;5.88;1.70;;;;;;;;;;6101449;23;20314;-85
2022/05/16 20:30:46;;;;;;;5.25;1.70;;;;;;;;;;6125036;23;20041;-85
2022/05/16 20:33:57;;;;;;;5.28;1.63;;;;;;;;;;6150349;23;20036;-85
2022/05/16 20:38:03;;;;;;;;;;;;;;;;;;6025846;23;20155;-85
2022/05/16 20:41:01;;;;;;;4.32;1.80;;;;;;;;;;6087201;23;19919;-84
2022/05/16 20:43:43;;;;;;;8.40;1.98;;;;;;;;;;6156663;23;20025;-85
2022/05/16 20:52:18;;;;;;;7.93;1.90;;;;;;;;;;6159070;23;20639;-86
2022/05/16 21:01:23;;;;;;;6.32;2.00;;;;;;;;;;6073556;23;20063;-86
2022/05/16 21:24:01;;;;;;;4.72;1.85;;;;;;;;;;5825497;24;20033;-85
2022/05/16 21:26:49;;;;;;;4.35;1.73;;;;;;;;;;5767618;24;20110;-84
2022/05/16 21:29:32;;;;;;;7.70;2.25;;;;;;;;;;5776416;24;20160;-85
2022/05/16 21:32:17;;;;;;;4.50;1.80;;;;;;;;;;5796577;24;20083;-84
2022/05/16 21:35:45;;;;;;;5.85;2.10;;;;;;;;;;5826916;24;20029;-85
2022/05/16 21:40:14;;;;;;;4.18;1.77;;;;;;;;;;5878971;24;20033;-85
2022/05/16 21:49:07;;;;;;;6.25;2.10;;;;;;;;;;5978219;23;20024;-85
2022/05/16 22:53:10;;;;;;;6.85;2.10;;;;;;;;;;6276016;22;20379;-85
2022/05/16 22:56:19;;;;;;;5.82;2.42;;;;;;;;;;6303519;22;20523;-84
2022/05/16 22:59:02;;;;;;;8.73;2.17;;;;;;;;;;6288736;22;20019;-84
2022/05/16 23:04:29;;;;;;;;;;;;;;;;;;6269883;22;20023;-78
2022/05/16 23:06:57;;;;;;;4.40;1.90;;;;;;;;;;6270800;22;20253;-79
2022/05/16 23:09:25;;;;;;;5.13;2.15;;;;;;;;;;6308037;22;20113;-79
2022/05/16 23:11:53;;;;;;;5.18;2.25;;;;;;;;;;6307992;22;20043;-78
2022/05/16 23:14:21;;;;;;;4.22;2.03;;;;;;;;;;6307698;22;20467;-78
2022/05/16 23:16:49;;;;;;;7.72;2.38;;;;;;;;;;6307550;22;20023;-79
2022/05/16 23:19:18;;;;;;;6.57;2.05;;;;;;;;;;6306926;22;20058;-78
2022/05/16 23:21:47;;;;;;;6.70;2.30;;;;;;;;;;6308871;22;20050;-77
2022/05/16 23:24:17;;;;;;;7.18;2.03;;;;;;;;;;6303058;22;20043;-78
2022/05/16 23:26:45;;;;;;;7.55;1.92;;;;;;;;;;6308602;22;20069;-78
2022/05/16 23:29:13;;;;;;;5.63;2.30;;;;;;;;;;6307328;22;20037;-78
2022/05/16 23:31:42;;;;;;;8.38;2.35;;;;;;;;;;6306783;22;20428;-78
2022/05/16 23:34:10;;;;;;;4.85;2.10;;;;;;;;;;6307200;22;20019;-78
2022/05/16 23:36:38;;;;;;;5.43;2.22;;;;;;;;;;6307605;22;20030;-78
2022/05/16 23:39:06;;;;;;;6.03;2.33;;;;;;;;;;6307707;22;20491;-78
2022/05/16 23:41:35;;;;;;;8.38;2.65;;;;;;;;;;6307918;22;20015;-78
2022/05/16 23:44:03;;;;;;;7.18;2.42;;;;;;;;;;6307901;22;20096;-78
2022/05/16 23:46:31;;;;;;;8.02;2.50;;;;;;;;;;6307224;22;20165;-78
2022/05/16 23:48:59;;;;;;;6.15;2.20;;;;;;;;;;6306902;22;20023;-77
2022/05/16 23:51:28;;;;;;;9.27;3.22;;;;;;;;;;6281582;22;20043;-80
2022/05/16 23:53:55;;;;;;;4.80;2.20;;;;;;;;;;6311439;22;20071;-80
2022/05/16 23:56:23;;;;;;;7.28;2.15;;;;;;;;;;6311487;22;20118;-80
2022/05/16 23:58:51;;;;;;;6.85;2.65;;;;;;;;;;6316928;22;20665;-81
